createdAt,value
2022-09-12T00:01:52.900Z,7.38
2022-09-12T00:04:19.687Z,7.03
2022-09-12T00:06:46.452Z,5.38
2022-09-12T00:09:14.364Z,5.70
2022-09-12T00:11:43.993Z,7.78
2022-09-12T00:14:17.439Z,8.20
2022-09-12T00:16:44.468Z,5.80
2022-09-12T00:19:12.022Z,5.50
2022-09-12T00:21:39.962Z,6.18
2022-09-12T00:24:07.542Z,7.00
2022-09-12T00:26:34.665Z,5.68
2022-09-12T00:29:01.569Z,6.50
2022-09-12T00:31:28.527Z,6.97
2022-09-12T00:33:57.986Z,7.18
2022-09-12T00:36:26.433Z,6.00
2022-09-12T00:38:54.708Z,6.00
2022-09-12T00:41:39.517Z,5.25
2022-09-12T00:44:12.320Z,5.32
2022-09-12T00:46:57.156Z,5.80
2022-09-12T00:49:45.638Z,9.40
2022-09-12T00:52:18.938Z,5.40
2022-09-12T00:55:27.837Z,4.82
2022-09-12T00:58:09.069Z,5.90
2022-09-12T01:00:36.153Z,5.20
2022-09-12T01:03:09.428Z,5.28
2022-09-12T01:05:39.864Z,5.10
2022-09-12T01:08:07.328Z,6.00
2022-09-12T01:10:37.410Z,5.68
2022-09-12T01:13:06.462Z,5.07
2022-09-12T01:15:34.047Z,6.82
2022-09-12T01:18:12.786Z,7.38
2022-09-12T01:21:05.059Z,5.38
2022-09-12T01:24:19.576Z,5.13
2022-09-12T01:27:13.613Z,5.28
2022-09-12T01:29:52.849Z,6.22
2022-09-12T01:32:49.033Z,6.38
2022-09-12T01:35:29.444Z,5.40
2022-09-12T01:38:27.785Z,8.18
2022-09-12T01:41:06.355Z,4.63
2022-09-12T01:43:56.315Z,4.85
2022-09-12T01:46:36.468Z,5.47
2022-09-12T01:49:23.903Z,5.00
2022-09-12T01:52:03.418Z,6.43
2022-09-12T01:54:40.011Z,8.07
2022-09-12T01:57:17.257Z,5.35
2022-09-12T01:59:52.272Z,6.70
2022-09-12T02:02:39.893Z,5.85
2022-09-12T02:05:42.909Z,6.28
2022-09-12T02:08:11.785Z,6.78
2022-09-12T02:10:49.707Z,5.95
2022-09-12T02:13:25.521Z,7.38
2022-09-12T02:16:38.992Z,6.32
2022-09-12T02:19:12.724Z,5.90
2022-09-12T02:21:44.996Z,6.60
2022-09-12T02:24:14.789Z,7.47
2022-09-12T02:26:49.716Z,5.22
2022-09-12T02:29:16.920Z,7.60
2022-09-12T02:32:35.731Z,8.32
2022-09-12T02:35:18.336Z,5.18
2022-09-12T02:37:57.189Z,9.30
2022-09-12T02:40:24.246Z,5.18
2022-09-12T02:42:51.529Z,5.10
2022-09-12T02:45:18.939Z,7.82
2022-09-12T02:48:00.676Z,6.30
2022-09-12T02:50:28.002Z,6.03
2022-09-12T02:52:59.703Z,7.38
2022-09-12T02:55:30.212Z,6.50
2022-09-12T02:57:57.159Z,5.95
2022-09-12T03:00:25.141Z,7.03
2022-09-12T03:02:56.424Z,8.85
2022-09-12T03:05:32.775Z,11.63
2022-09-12T03:08:17.489Z,7.63
2022-09-12T03:11:19.978Z,18.75
2022-09-12T03:14:28.686Z,12.85
2022-09-12T03:17:17.359Z,9.85
2022-09-12T03:20:18.116Z,14.90
2022-09-12T03:22:48.124Z,12.80
2022-09-12T03:26:01.009Z,18.98
2022-09-12T03:28:28.220Z,11.00
2022-09-12T03:30:56.528Z,8.20
2022-09-12T03:33:25.440Z,8.48
2022-09-12T03:35:53.121Z,6.80
2022-09-12T03:38:20.377Z,10.43
2022-09-12T03:40:51.397Z,15.50
2022-09-12T03:43:20.908Z,27.40
2022-09-12T03:45:52.843Z,27.40
2022-09-12T03:48:19.666Z,29.52
2022-09-12T03:50:46.485Z,21.42
2022-09-12T03:53:17.066Z,28.13
2022-09-12T03:55:44.363Z,14.63
2022-09-12T03:58:11.154Z,19.85
2022-09-12T04:00:39.738Z,32.45
2022-09-12T04:03:06.499Z,15.98
2022-09-12T04:05:33.282Z,21.83
2022-09-12T04:08:00.048Z,14.13
2022-09-12T04:10:26.801Z,13.90
2022-09-12T04:12:53.573Z,24.60
2022-09-12T04:15:20.397Z,26.63
2022-09-12T04:17:47.161Z,25.48
2022-09-12T04:20:13.919Z,21.35
2022-09-12T04:22:40.789Z,15.70
2022-09-12T04:25:09.325Z,38.35
2022-09-12T04:27:36.133Z,12.13
2022-09-12T04:30:03.302Z,13.38
2022-09-12T04:32:31.333Z,24.73
2022-09-12T04:34:58.360Z,24.15
2022-09-12T04:37:25.251Z,31.10
2022-09-12T04:39:57.642Z,16.65
2022-09-12T04:44:52.163Z,31.77
2022-09-12T04:47:19.115Z,12.00
2022-09-12T04:49:45.860Z,22.33
2022-09-12T04:52:12.650Z,29.02
2022-09-12T04:54:40.273Z,21.13
2022-09-12T04:57:07.046Z,19.35
2022-09-12T04:59:33.791Z,14.57
2022-09-12T05:02:00.615Z,12.20
2022-09-12T05:04:27.353Z,17.30
2022-09-12T05:06:54.130Z,9.32
2022-09-12T05:09:21.148Z,13.30
2022-09-12T05:12:05.019Z,20.48
2022-09-12T05:14:37.610Z,10.55
2022-09-12T05:17:06.017Z,7.57
2022-09-12T05:19:33.520Z,11.75
2022-09-12T05:22:00.322Z,8.55
2022-09-12T05:24:27.530Z,6.93
2022-09-12T05:26:54.286Z,10.93
2022-09-12T05:29:21.209Z,7.32
2022-09-12T05:31:50.732Z,12.63
2022-09-12T05:34:18.042Z,8.82
2022-09-12T05:36:44.841Z,6.03
2022-09-12T05:39:11.995Z,19.17
2022-09-12T05:41:38.734Z,7.40
2022-09-12T05:44:07.441Z,6.07
2022-09-12T05:46:40.081Z,8.77
2022-09-12T05:49:09.890Z,9.60
2022-09-12T05:51:39.749Z,6.95
2022-09-12T05:54:08.216Z,8.80
2022-09-12T05:56:39.431Z,16.13
2022-09-12T05:59:12.457Z,18.90
2022-09-12T06:01:39.877Z,11.27
2022-09-12T06:04:07.216Z,15.65
2022-09-12T06:06:39.068Z,16.08
2022-09-12T06:09:06.377Z,7.68
2022-09-12T06:11:34.847Z,10.27
2022-09-12T06:14:01.955Z,15.25
2022-09-12T06:16:31.352Z,10.23
2022-09-12T06:19:01.122Z,11.35
2022-09-12T06:21:28.841Z,19.63
2022-09-12T06:23:55.967Z,16.10
2022-09-12T06:26:25.589Z,12.57
2022-09-12T06:28:54.031Z,9.93
2022-09-12T06:31:26.187Z,9.90
2022-09-12T06:33:54.596Z,12.35
2022-09-12T06:36:23.657Z,9.98
2022-09-12T06:38:57.998Z,10.65
2022-09-12T06:41:26.862Z,9.43
2022-09-12T06:43:54.163Z,7.65
2022-09-12T06:46:21.849Z,9.98
2022-09-12T06:48:49.273Z,9.70
2022-09-12T06:51:18.080Z,10.25
2022-09-12T06:53:46.364Z,16.67
2022-09-12T06:56:14.174Z,10.27
2022-09-12T06:58:42.767Z,11.00
2022-09-12T07:01:15.588Z,8.73
2022-09-12T07:03:43.593Z,8.85
2022-09-12T07:06:13.036Z,9.35
2022-09-12T07:08:41.049Z,11.60
2022-09-12T07:11:12.874Z,10.95
2022-09-12T07:13:44.695Z,12.25
2022-09-12T07:16:17.259Z,8.35
2022-09-12T07:18:51.354Z,10.95
2022-09-12T07:21:18.347Z,11.98
2022-09-12T07:23:45.564Z,11.15
2022-09-12T07:26:13.686Z,11.23
2022-09-12T07:28:41.122Z,11.57
2022-09-12T07:31:10.940Z,12.32
2022-09-12T07:33:38.674Z,10.35
2022-09-12T07:36:14.959Z,10.60
2022-09-12T07:38:42.524Z,15.25
2022-09-12T07:41:24.116Z,12.23
2022-09-12T07:43:59.174Z,10.98
2022-09-12T07:46:27.128Z,12.90
2022-09-12T07:48:55.848Z,12.15
2022-09-12T07:51:23.601Z,12.20
2022-09-12T07:53:51.766Z,11.88
2022-09-12T07:56:26.109Z,12.52
2022-09-12T07:58:57.000Z,13.73
2022-09-12T08:01:25.104Z,18.25
2022-09-12T08:03:57.355Z,12.68
2022-09-12T08:06:25.992Z,13.40
2022-09-12T08:08:57.242Z,12.77
2022-09-12T08:11:25.503Z,11.65
2022-09-12T08:13:55.590Z,12.45
2022-09-12T08:16:24.938Z,11.05
2022-09-12T08:18:52.409Z,12.60
2022-09-12T08:21:24.539Z,14.32
2022-09-12T08:23:58.792Z,11.57
2022-09-12T08:26:25.857Z,13.77
2022-09-12T08:28:53.789Z,9.98
2022-09-12T08:31:22.764Z,11.90
2022-09-12T08:33:50.138Z,12.98
2022-09-12T08:36:18.269Z,11.77
2022-09-12T08:38:46.738Z,13.45
2022-09-12T08:41:21.159Z,10.18
2022-09-12T08:44:09.765Z,11.25
2022-09-12T08:46:51.772Z,11.35
2022-09-12T08:49:26.101Z,12.48
2022-09-12T08:51:53.705Z,12.35
2022-09-12T08:54:26.879Z,9.95
2022-09-12T08:57:06.933Z,10.27
2022-09-12T08:59:44.402Z,12.38
2022-09-12T09:02:43.338Z,11.90
2022-09-12T09:05:32.291Z,9.90
2022-09-12T09:08:11.552Z,9.18
2022-09-12T09:11:02.650Z,10.10
2022-09-12T09:14:05.348Z,12.35
2022-09-12T09:19:09.472Z,8.77
2022-09-12T09:21:50.812Z,11.80
2022-09-12T09:24:22.461Z,11.93
2022-09-12T09:27:36.858Z,9.23
2022-09-12T09:29:59.922Z,8.27
2022-09-12T09:32:28.193Z,8.10
2022-09-12T09:34:54.996Z,22.50
2022-09-12T09:37:29.071Z,10.27
2022-09-12T09:40:08.583Z,9.98
2022-09-12T09:42:44.031Z,8.15
2022-09-12T09:45:17.263Z,11.38
2022-09-12T09:48:13.659Z,7.57
2022-09-12T09:50:40.596Z,9.95
2022-09-12T09:53:18.123Z,6.05
2022-09-12T09:55:45.809Z,6.68
2022-09-12T09:58:35.229Z,8.00
2022-09-12T10:01:12.285Z,9.80
2022-09-12T10:03:40.033Z,38.20
2022-09-12T10:06:30.912Z,22.73
2022-09-12T10:09:19.255Z,15.30
2022-09-12T10:11:47.538Z,9.63
2022-09-12T10:14:41.602Z,8.52
2022-09-12T10:17:43.497Z,20.63
2022-09-12T10:20:34.825Z,11.80
2022-09-12T10:23:20.595Z,9.23
2022-09-12T10:25:56.141Z,7.80
2022-09-12T10:28:39.665Z,5.55
2022-09-12T10:31:09.348Z,13.57
2022-09-12T10:33:43.330Z,7.63
2022-09-12T10:36:10.444Z,6.60
2022-09-12T10:38:37.411Z,10.40
2022-09-12T10:41:10.120Z,9.63
2022-09-12T10:43:42.350Z,10.07
2022-09-12T10:49:12.132Z,7.00
2022-09-12T10:51:38.900Z,7.05
2022-09-12T10:54:10.831Z,6.28
2022-09-12T10:56:49.403Z,6.93
2022-09-12T10:59:37.522Z,8.50
2022-09-12T11:02:45.721Z,6.13
2022-09-12T11:05:36.642Z,6.05
2022-09-12T11:08:26.476Z,5.30
2022-09-12T11:11:06.850Z,4.93
2022-09-12T11:13:53.185Z,5.00
2022-09-12T11:16:21.906Z,6.07
2022-09-12T11:18:51.816Z,5.05
2022-09-12T11:21:27.589Z,4.78
2022-09-12T11:24:35.678Z,4.30
2022-09-12T11:27:40.168Z,7.22
2022-09-12T11:30:13.760Z,4.88
2022-09-12T11:33:22.068Z,7.60
2022-09-12T11:35:55.223Z,3.85
2022-09-12T11:38:38.850Z,5.20
2022-09-12T11:41:07.391Z,3.83
2022-09-12T11:44:10.171Z,2.95
2022-09-12T11:49:13.854Z,3.50
2022-09-12T11:51:57.713Z,3.90
2022-09-12T11:54:38.256Z,2.70
2022-09-12T11:57:19.832Z,2.60
2022-09-12T11:59:55.545Z,4.57
2022-09-12T12:02:31.337Z,3.60
2022-09-12T12:05:20.507Z,6.25
2022-09-12T12:07:59.415Z,2.88
2022-09-12T12:10:40.049Z,4.07
2022-09-12T12:13:19.352Z,2.97
2022-09-12T12:15:54.432Z,4.22
2022-09-12T12:18:33.080Z,3.97
2022-09-12T12:21:21.980Z,4.40
2022-09-12T12:24:09.170Z,4.13
2022-09-12T12:27:01.315Z,3.90
2022-09-12T12:29:44.088Z,2.42
2022-09-12T12:32:11.202Z,3.90
2022-09-12T12:34:46.484Z,3.20
2022-09-12T12:37:19.458Z,2.65
2022-09-12T12:39:50.246Z,3.47
2022-09-12T12:42:35.442Z,4.53
2022-09-12T12:45:04.259Z,3.55
2022-09-12T12:47:40.934Z,5.03
2022-09-12T12:50:10.851Z,2.75
2022-09-12T12:52:58.447Z,2.55
2022-09-12T12:55:37.882Z,7.00
2022-09-12T12:58:40.683Z,1.95
2022-09-12T13:01:13.512Z,2.38
2022-09-12T13:04:01.259Z,6.88
2022-09-12T13:06:39.488Z,1.88
2022-09-12T13:09:24.665Z,4.85
2022-09-12T13:12:18.460Z,3.58
2022-09-12T13:15:01.668Z,2.80
2022-09-12T13:17:57.742Z,5.28
2022-09-12T13:20:34.045Z,1.80
2022-09-12T13:23:00.815Z,3.55
2022-09-12T13:25:36.135Z,1.80
2022-09-12T13:28:12.024Z,5.15
2022-09-12T13:31:13.950Z,4.95
2022-09-12T13:33:48.048Z,2.73
2022-09-12T13:36:17.656Z,1.75
2022-09-12T13:39:13.445Z,2.33
2022-09-12T13:42:15.378Z,2.90
2022-09-12T13:45:13.053Z,8.07
2022-09-12T13:47:45.943Z,3.20
2022-09-12T13:50:22.901Z,3.83
2022-09-12T13:53:00.284Z,3.85
2022-09-12T13:55:33.084Z,1.50
2022-09-12T13:58:03.125Z,4.40
2022-09-12T14:00:32.160Z,1.63
2022-09-12T14:03:18.989Z,2.78
2022-09-12T14:05:55.033Z,2.08
2022-09-12T14:08:23.851Z,3.38
2022-09-12T14:10:51.337Z,1.77
2022-09-12T14:13:24.990Z,1.10
2022-09-12T14:15:55.000Z,4.88
2022-09-12T14:18:28.083Z,2.38
2022-09-12T14:20:58.400Z,2.28
2022-09-12T14:23:29.155Z,4.07
2022-09-12T14:25:58.701Z,2.83
2022-09-12T14:28:28.527Z,2.13
2022-09-12T14:31:28.819Z,3.13
2022-09-12T14:34:16.813Z,2.75
2022-09-12T14:36:57.229Z,5.80
2022-09-12T14:39:39.876Z,1.65
2022-09-12T14:42:14.342Z,2.60
2022-09-12T14:44:49.707Z,1.52
2022-09-12T14:47:26.454Z,1.30
2022-09-12T14:49:53.987Z,1.98
2022-09-12T14:52:32.345Z,2.10
2022-09-12T14:55:20.938Z,5.25
2022-09-12T14:57:49.585Z,1.63
2022-09-12T15:00:22.224Z,1.17
2022-09-12T15:02:50.327Z,2.92
2022-09-12T15:05:21.787Z,1.20
2022-09-12T15:07:53.658Z,1.10
2022-09-12T15:10:23.004Z,3.10
2022-09-12T15:12:49.869Z,3.50
2022-09-12T15:15:21.225Z,1.70
2022-09-12T15:17:47.988Z,1.87
2022-09-12T15:20:14.972Z,4.82
2022-09-12T15:22:42.404Z,2.67
2022-09-12T15:25:12.253Z,1.80
2022-09-12T15:27:42.404Z,3.03
2022-09-12T15:30:10.391Z,2.35
2022-09-12T15:32:37.643Z,8.25
2022-09-12T15:35:10.199Z,5.00
2022-09-12T15:37:36.941Z,4.82
2022-09-12T15:40:05.007Z,1.73
2022-09-12T15:42:32.165Z,3.00
2022-09-12T15:45:02.579Z,2.13
2022-09-12T15:47:29.725Z,2.20
2022-09-12T15:49:56.597Z,2.00
2022-09-12T15:52:23.359Z,2.22
2022-09-12T15:54:50.164Z,1.15
2022-09-12T15:57:17.042Z,1.02
2022-09-12T15:59:43.784Z,2.65
2022-09-12T16:02:11.847Z,1.75
2022-09-12T16:04:38.593Z,3.33
2022-09-12T16:07:05.429Z,2.13
2022-09-12T16:09:32.290Z,1.27
2022-09-12T16:11:59.124Z,3.40
2022-09-12T16:14:25.908Z,4.25
2022-09-12T16:16:54.204Z,1.10
2022-09-12T16:19:21.433Z,1.67
2022-09-12T16:21:48.820Z,0.90
2022-09-12T16:24:15.826Z,0.57
2022-09-12T16:26:42.609Z,3.75
2022-09-12T16:29:11.956Z,1.50
2022-09-12T16:31:40.081Z,1.20
2022-09-12T16:34:07.316Z,0.82
2022-09-12T16:36:34.205Z,1.80
2022-09-12T16:39:00.969Z,1.02
2022-09-12T16:41:27.891Z,2.10
2022-09-12T16:43:55.116Z,1.88
2022-09-12T16:46:30.031Z,2.83
2022-09-12T16:48:58.119Z,2.85
2022-09-12T16:51:32.151Z,1.13
2022-09-12T16:53:58.970Z,2.67
2022-09-12T16:56:26.199Z,1.20
2022-09-12T16:58:53.944Z,1.75
2022-09-12T17:01:26.546Z,4.00
2022-09-12T17:03:56.342Z,3.05
2022-09-12T17:06:25.193Z,1.80
2022-09-12T17:08:53.974Z,1.20
2022-09-12T17:11:23.578Z,1.15
2022-09-12T17:14:04.371Z,1.48
2022-09-12T17:16:34.392Z,2.03
2022-09-12T17:19:01.147Z,1.02
2022-09-12T17:21:28.107Z,1.65
2022-09-12T17:23:55.379Z,1.80
2022-09-12T17:26:22.533Z,1.40
2022-09-12T17:28:49.679Z,1.52
2022-09-12T17:31:17.200Z,3.20
2022-09-12T17:33:44.424Z,1.63
2022-09-12T17:36:15.335Z,3.10
2022-09-12T17:38:43.657Z,3.60
2022-09-12T17:41:17.578Z,1.42
2022-09-12T17:43:50.908Z,3.22
2022-09-12T17:46:21.890Z,1.92
2022-09-12T17:48:53.536Z,1.33
2022-09-12T17:51:20.863Z,2.20
2022-09-12T17:53:48.009Z,4.53
2022-09-12T17:56:15.643Z,1.75
2022-09-12T17:58:42.472Z,1.88
2022-09-12T18:01:34.244Z,2.17
2022-09-12T18:04:02.290Z,2.15
2022-09-12T18:06:30.477Z,1.63
2022-09-12T18:09:02.309Z,1.75
2022-09-12T18:11:29.765Z,1.23
2022-09-12T18:13:58.975Z,7.32
2022-09-12T18:16:26.551Z,1.45
2022-09-12T18:18:53.431Z,1.80
2022-09-12T18:21:20.778Z,2.92
2022-09-12T18:23:47.963Z,1.95
2022-09-12T18:26:15.384Z,5.97
2022-09-12T18:28:44.067Z,3.08
2022-09-12T18:31:14.678Z,2.75
2022-09-12T18:33:41.975Z,2.17
2022-09-12T18:36:11.633Z,5.13
2022-09-12T18:38:39.430Z,4.35
2022-09-12T18:41:11.716Z,2.42
2022-09-12T18:43:38.727Z,1.77
2022-09-12T18:46:07.872Z,1.85
2022-09-12T18:48:35.334Z,2.17
2022-09-12T18:51:21.863Z,2.45
2022-09-12T18:53:56.274Z,1.75
2022-09-12T18:56:25.895Z,1.88
2022-09-12T18:58:56.192Z,1.98
2022-09-12T19:01:25.535Z,5.05
2022-09-12T19:03:53.265Z,3.78
2022-09-12T19:06:23.022Z,3.42
2022-09-12T19:08:51.524Z,4.55
2022-09-12T19:11:19.186Z,2.05
2022-09-12T19:13:47.743Z,4.90
2022-09-12T19:16:23.081Z,2.80
2022-09-12T19:18:52.344Z,3.80
2022-09-12T19:21:25.207Z,8.32
2022-09-12T19:23:55.875Z,3.97
2022-09-12T19:26:23.018Z,3.47
2022-09-12T19:28:50.395Z,2.85
2022-09-12T19:31:20.010Z,4.85
2022-09-12T19:33:47.421Z,8.60
2022-09-12T19:36:41.304Z,5.50
2022-09-12T19:39:05.888Z,4.25
2022-09-12T19:41:33.326Z,1.98
2022-09-12T19:44:00.625Z,4.93
2022-09-12T19:46:27.872Z,4.03
2022-09-12T19:48:54.783Z,2.75
2022-09-12T19:51:24.033Z,9.80
2022-09-12T19:53:51.475Z,5.15
2022-09-12T19:56:18.262Z,7.38
2022-09-12T19:58:47.725Z,2.53
2022-09-12T20:01:24.773Z,6.28
2022-09-12T20:03:55.051Z,2.10
2022-09-12T20:06:21.855Z,4.75
2022-09-12T20:08:48.943Z,2.58
2022-09-12T20:11:19.080Z,3.00
2022-09-12T20:13:46.693Z,3.92
2022-09-12T20:16:25.834Z,4.82
2022-09-12T20:19:02.879Z,6.72
2022-09-12T20:21:32.992Z,3.45
2022-09-12T20:24:09.837Z,3.58
2022-09-12T20:26:37.096Z,3.88
2022-09-12T20:29:05.327Z,10.20
2022-09-12T20:31:33.434Z,3.22
2022-09-12T20:34:00.622Z,5.85
2022-09-12T20:36:27.633Z,4.03
2022-09-12T20:38:56.984Z,4.43
2022-09-12T20:41:25.526Z,7.00
2022-09-12T20:43:53.541Z,3.70
2022-09-12T20:46:22.504Z,6.45
2022-09-12T20:48:50.554Z,6.97
2022-09-12T20:51:17.874Z,4.18
2022-09-12T20:53:44.719Z,4.53
2022-09-12T20:56:11.711Z,5.57
2022-09-12T20:58:43.591Z,5.85
2022-09-12T21:03:39.782Z,6.43
2022-09-12T21:06:08.069Z,2.80
2022-09-12T21:08:35.705Z,2.30
2022-09-12T21:11:03.106Z,7.18
2022-09-12T21:13:30.315Z,2.47
2022-09-12T21:16:15.223Z,5.20
2022-09-12T21:18:42.825Z,2.90
2022-09-12T21:21:11.698Z,4.15
2022-09-12T21:23:39.061Z,4.82
2022-09-12T21:26:06.143Z,5.00
2022-09-12T21:28:33.394Z,5.80
2022-09-12T21:31:00.320Z,3.15
2022-09-12T21:33:28.172Z,2.40
2022-09-12T21:35:56.067Z,4.07
2022-09-12T21:38:22.904Z,3.63
2022-09-12T21:40:49.686Z,3.85
2022-09-12T21:43:16.682Z,11.40
2022-09-12T21:45:43.553Z,5.32
2022-09-12T21:48:10.595Z,3.10
2022-09-12T21:50:37.339Z,4.43
2022-09-12T21:53:04.230Z,2.95
2022-09-12T21:55:31.197Z,3.38
2022-09-12T21:57:58.042Z,3.22
2022-09-12T22:00:24.933Z,3.72
2022-09-12T22:02:51.749Z,3.38
2022-09-12T22:05:21.296Z,5.55
2022-09-12T22:07:48.148Z,7.57
2022-09-12T22:10:15.265Z,4.38
2022-09-12T22:12:46.015Z,3.30
2022-09-12T22:15:39.519Z,3.67
2022-09-12T22:18:03.002Z,4.55
2022-09-12T22:20:29.895Z,5.45
2022-09-12T22:23:15.148Z,3.13
2022-09-12T22:25:41.962Z,5.40
2022-09-12T22:28:08.762Z,3.75
2022-09-12T22:30:35.986Z,3.92
2022-09-12T22:33:02.822Z,3.00
2022-09-12T22:35:29.597Z,3.60
2022-09-12T22:38:01.355Z,3.85
2022-09-12T22:40:28.218Z,4.13
2022-09-12T22:42:55.029Z,4.15
2022-09-12T22:45:21.962Z,4.43
2022-09-12T22:47:48.757Z,4.38
2022-09-12T22:50:18.528Z,5.15
2022-09-12T22:52:45.344Z,4.65
2022-09-12T22:55:12.154Z,3.70
2022-09-12T22:57:39.707Z,2.85
2022-09-12T23:00:10.438Z,2.92
2022-09-12T23:02:38.115Z,3.10
2022-09-12T23:05:05.919Z,5.85
2022-09-12T23:07:33.560Z,5.65
2022-09-12T23:10:00.615Z,3.47
2022-09-12T23:12:27.394Z,5.97
2022-09-12T23:14:54.126Z,6.07
2022-09-12T23:17:20.892Z,3.67
2022-09-12T23:19:48.444Z,4.20
2022-09-12T23:22:15.234Z,7.60
2022-09-12T23:24:41.998Z,6.07
2022-09-12T23:27:09.059Z,8.15
2022-09-12T23:29:35.840Z,4.13
2022-09-12T23:32:04.191Z,6.45
2022-09-12T23:34:31.160Z,6.13
2022-09-12T23:36:57.959Z,7.70
2022-09-12T23:39:24.781Z,4.28
2022-09-12T23:41:52.080Z,3.88
2022-09-12T23:44:18.875Z,5.60
2022-09-12T23:46:45.699Z,8.10
2022-09-12T23:49:12.559Z,4.95
2022-09-12T23:51:39.705Z,5.15
2022-09-12T23:54:06.523Z,6.55
2022-09-12T23:56:33.282Z,3.97
2022-09-12T23:59:00.149Z,4.47
